^^
TXWeather Station Historical Data
 
Daily Summary for September 26, 2020 Units:  English    Metric   Both
Daily Weekly Monthly Yearly Custom
  Current: High: Low: Average:
Temperature: 71.6 °F 71.6 °F 63.7 °F 66.2 °F
Dew Point: 69.3 °F 69.3 °F 61.7 °F 63.9 °F
Humidity: 93% 95% 87% 92%
Wind Speed: 2mph 3mph 0mph 0.7mph
Wind Gust: 2mph 3mph - -
WindEast - - East
Pressure: 30.0 in 30.0 in 30.0 in -
Precipitation: 0.000 in      
Historical Graphs
 
 
Tabular Data for September 26, 2020
Time Temperature Dew Point Pressure Wind Wind Speed Wind Gust Humidity Rainfall Rate (Hourly) solar
00:04 68.7 °F 64.8 °F 30.0 in East 1 mph 2 mph 87% 0.000 in 0.00 W/m2
00:09 68.7 °F 64.8 °F 30.0 in East 1 mph 1 mph 87% 0.000 in 0.00 W/m2
00:14 68.7 °F 64.8 °F 30.0 in East 1 mph 1 mph 87% 0.000 in 0.00 W/m2
00:19 68.5 °F 64.6 °F 30.0 in Calm     87% 0.000 in 0.00 W/m2
00:24 68.5 °F 64.6 °F 30.0 in Calm     87% 0.000 in 0.00 W/m2
00:29 68.4 °F 64.6 °F 30.0 in East 1 mph 1 mph 88% 0.000 in 0.00 W/m2
00:34 68.4 °F 64.6 °F 30.0 in East 1 mph 1 mph 88% 0.000 in 0.00 W/m2
00:39 68.4 °F 64.6 °F 30.0 in Calm   1 mph 88% 0.000 in 0.00 W/m2
00:44 68.2 °F 64.6 °F 30.0 in Calm     89% 0.000 in 0.00 W/m2
00:49 68.0 °F 64.6 °F 30.0 in Calm     89% 0.000 in 0.00 W/m2
00:54 67.8 °F 64.4 °F 30.0 in Calm     89% 0.000 in 0.00 W/m2
00:59 67.8 °F 64.4 °F 30.0 in Calm     89% 0.000 in 0.00 W/m2
01:04 67.8 °F 64.4 °F 30.0 in Calm     89% 0.000 in 0.00 W/m2
01:09 67.8 °F 64.4 °F 30.0 in Calm     89% 0.000 in 0.00 W/m2
01:14 67.6 °F 64.2 °F 30.0 in East 1 mph 2 mph 89% 0.000 in 0.00 W/m2
01:19 67.5 °F 64.0 °F 30.0 in Calm   1 mph 89% 0.000 in 0.00 W/m2
01:24 67.5 °F 64.0 °F 30.0 in Calm     89% 0.000 in 0.00 W/m2
01:29 67.5 °F 64.4 °F 30.0 in Calm     90% 0.000 in 0.00 W/m2
01:34 67.5 °F 64.4 °F 30.0 in Calm     90% 0.000 in 0.00 W/m2
01:39 67.5 °F 64.4 °F 30.0 in Calm     90% 0.000 in 0.00 W/m2
01:44 67.1 °F 64.0 °F 30.0 in East 1 mph 1 mph 90% 0.000 in 0.00 W/m2
01:49 66.9 °F 63.9 °F 30.0 in East 1 mph 1 mph 90% 0.000 in 0.00 W/m2
01:54 66.9 °F 63.9 °F 30.0 in Calm   1 mph 90% 0.000 in 0.00 W/m2
01:59 66.7 °F 63.9 °F 30.0 in Calm     91% 0.000 in 0.00 W/m2
02:04 66.6 °F 63.9 °F 30.0 in Calm     91% 0.000 in 0.00 W/m2
02:09 66.4 °F 63.7 °F 30.0 in East 1 mph 1 mph 91% 0.000 in 0.00 W/m2
02:14 66.4 °F 63.7 °F 30.0 in Calm   1 mph 91% 0.000 in 0.00 W/m2
02:19 66.4 °F 63.7 °F 30.0 in Calm     91% 0.000 in 0.00 W/m2
02:24 66.4 °F 63.7 °F 30.0 in Calm     91% 0.000 in 0.00 W/m2
02:29 66.2 °F 63.5 °F 30.0 in Calm     91% 0.000 in 0.00 W/m2
02:34 66.2 °F 63.9 °F 30.0 in Calm   1 mph 92% 0.000 in 0.00 W/m2
02:39 66.2 °F 63.9 °F 30.0 in Calm     92% 0.000 in 0.00 W/m2
02:44 66.2 °F 63.9 °F 30.0 in East 1 mph 1 mph 92% 0.000 in 0.00 W/m2
02:49 66.0 °F 63.7 °F 30.0 in East 1 mph 1 mph 92% 0.000 in 0.00 W/m2
02:54 66.0 °F 63.7 °F 30.0 in Calm     92% 0.000 in 0.00 W/m2
02:59 65.8 °F 63.5 °F 30.0 in East 1 mph 1 mph 92% 0.000 in 0.00 W/m2
03:04 66.0 °F 63.7 °F 30.0 in East 1 mph 1 mph 92% 0.000 in 0.00 W/m2
03:09 66.0 °F 63.7 °F 30.0 in Calm   1 mph 92% 0.000 in 0.00 W/m2
03:14 66.0 °F 63.7 °F 30.0 in Calm   1 mph 92% 0.000 in 0.00 W/m2
03:19 66.0 °F 63.7 °F 30.0 in East 1 mph 1 mph 92% 0.000 in 0.00 W/m2
03:24 66.2 °F 63.9 °F 30.0 in East 1 mph 1 mph 92% 0.000 in 0.00 W/m2
03:29 66.4 °F 64.0 °F 30.0 in East 1 mph 1 mph 92% 0.000 in 0.00 W/m2
03:34 66.2 °F 63.9 °F 30.0 in Calm     92% 0.000 in 0.00 W/m2
03:39 66.0 °F 63.7 °F 30.0 in Calm     92% 0.000 in 0.00 W/m2
03:44 65.8 °F 63.5 °F 30.0 in Calm     92% 0.000 in 0.00 W/m2
03:49 65.8 °F 63.5 °F 30.0 in Calm     92% 0.000 in 0.00 W/m2
03:54 65.8 °F 63.5 °F 30.0 in Calm     92% 0.000 in 0.00 W/m2
03:59 65.7 °F 63.3 °F 30.0 in Calm     92% 0.000 in 0.00 W/m2
04:04 65.7 °F 63.3 °F 30.0 in Calm     92% 0.000 in 0.00 W/m2
04:09 65.5 °F 63.3 °F 30.0 in Calm     93% 0.000 in 0.00 W/m2
04:14 65.5 °F 63.3 °F 30.0 in Calm     93% 0.000 in 0.00 W/m2
04:19 65.5 °F 63.3 °F 30.0 in Calm     93% 0.000 in 0.00 W/m2
04:24 65.5 °F 63.3 °F 30.0 in Calm     93% 0.000 in 0.00 W/m2
04:29 65.1 °F 63.0 °F 30.0 in East 1 mph 1 mph 93% 0.000 in 0.00 W/m2
04:34 65.1 °F 63.0 °F 30.0 in East 1 mph 1 mph 93% 0.000 in 0.00 W/m2
04:39 65.1 °F 63.0 °F 30.0 in Calm     93% 0.000 in 0.00 W/m2
04:44 65.1 °F 63.0 °F 30.0 in Calm     93% 0.000 in 0.00 W/m2
04:49 65.1 °F 63.0 °F 30.0 in Calm     93% 0.000 in 0.00 W/m2
04:54 65.1 °F 63.0 °F 30.0 in Calm     93% 0.000 in 0.00 W/m2
04:59 64.9 °F 62.8 °F 30.0 in Calm     93% 0.000 in 0.00 W/m2
05:04 65.1 °F 63.0 °F 30.0 in East 1 mph 1 mph 93% 0.000 in 0.00 W/m2
05:09 65.1 °F 63.0 °F 30.0 in East 1 mph 1 mph 93% 0.000 in 0.00 W/m2
05:14 64.9 °F 62.8 °F 30.0 in East 1 mph 1 mph 93% 0.000 in 0.00 W/m2
05:19 64.9 °F 62.8 °F 30.0 in Calm     93% 0.000 in 0.00 W/m2
05:24 64.9 °F 62.8 °F 30.0 in Calm     93% 0.000 in 0.00 W/m2
05:29 64.8 °F 62.6 °F 30.0 in East 1 mph 1 mph 93% 0.000 in 0.00 W/m2
05:34 64.8 °F 62.6 °F 30.0 in East 1 mph 1 mph 93% 0.000 in 0.00 W/m2
05:39 64.8 °F 62.6 °F 30.0 in East 1 mph 1 mph 93% 0.000 in 0.00 W/m2
05:44 64.6 °F 62.4 °F 30.0 in East 1 mph 1 mph 93% 0.000 in 0.00 W/m2
05:49 64.6 °F 62.4 °F 30.0 in Calm     93% 0.000 in 0.00 W/m2
05:54 64.6 °F 62.4 °F 30.0 in Calm     93% 0.000 in 0.00 W/m2
05:59 64.6 °F 62.4 °F 30.0 in Calm     93% 0.000 in 0.00 W/m2
06:04 64.6 °F 62.4 °F 30.0 in Calm     93% 0.000 in 0.00 W/m2
06:09 64.4 °F 62.4 °F 30.0 in Calm     93% 0.000 in 0.00 W/m2
06:14 64.2 °F 62.2 °F 30.0 in Calm     93% 0.000 in 0.00 W/m2
06:19 64.2 °F 62.2 °F 30.0 in East 1 mph 1 mph 93% 0.000 in 0.00 W/m2
06:24 64.2 °F 62.2 °F 30.0 in East 1 mph 1 mph 93% 0.000 in 0.00 W/m2
06:29 64.0 °F 62.1 °F 30.0 in Calm   1 mph 93% 0.000 in 0.00 W/m2
06:34 64.2 °F 62.2 °F 30.0 in Calm   1 mph 93% 0.000 in 0.00 W/m2
06:39 64.2 °F 62.2 °F 30.0 in Calm     93% 0.000 in 0.00 W/m2
06:44 64.2 °F 62.2 °F 30.0 in Calm     93% 0.000 in 0.00 W/m2
06:49 63.9 °F 61.9 °F 30.0 in Calm     93% 0.000 in 0.00 W/m2
06:54 63.9 °F 61.9 °F 30.0 in Calm     93% 0.000 in 0.00 W/m2
06:59 63.7 °F 61.7 °F 30.0 in Calm     93% 0.000 in 0.00 W/m2
07:04 63.9 °F 61.9 °F 30.0 in Calm   1 mph 93% 0.000 in 0.00 W/m2
07:09 63.9 °F 61.9 °F 30.0 in East 2 mph 2 mph 93% 0.000 in 0.00 W/m2
07:14 63.9 °F 61.9 °F 30.0 in East 1 mph 1 mph 93% 0.000 in 0.00 W/m2
07:19 63.9 °F 61.9 °F 30.0 in East 2 mph 2 mph 93% 0.000 in 5.00 W/m2
07:24 63.9 °F 61.9 °F 30.0 in East 1 mph 1 mph 93% 0.000 in 11.00 W/m2
07:29 64.0 °F 62.2 °F 30.0 in East 1 mph 1 mph 94% 0.000 in 12.00 W/m2
07:34 64.2 °F 62.4 °F 30.0 in Calm   1 mph 94% 0.000 in 19.00 W/m2
07:39 64.2 °F 62.4 °F 30.0 in East 1 mph 1 mph 94% 0.000 in 23.00 W/m2
07:44 64.6 °F 62.8 °F 30.0 in Calm   1 mph 94% 0.000 in 28.00 W/m2
07:49 64.8 °F 63.0 °F 30.0 in Calm     94% 0.000 in 35.00 W/m2
07:54 64.9 °F 63.1 °F 30.0 in East 1 mph 1 mph 94% 0.000 in 39.00 W/m2
07:59 64.9 °F 63.1 °F 30.0 in East 2 mph 2 mph 94% 0.000 in 51.00 W/m2
08:04 65.1 °F 63.3 °F 30.0 in East 2 mph 2 mph 94% 0.000 in 54.00 W/m2
08:09 65.3 °F 63.5 °F 30.0 in East 2 mph 2 mph 94% 0.000 in 70.00 W/m2
08:14 65.7 °F 64.2 °F 30.0 in East 2 mph 2 mph 95% 0.000 in 83.00 W/m2
08:19 65.8 °F 64.2 °F 30.0 in East 3 mph 3 mph 95% 0.000 in 95.00 W/m2
08:24 66.0 °F 64.6 °F 30.0 in East 3 mph 3 mph 95% 0.000 in 97.00 W/m2
08:29 66.6 °F 65.1 °F 30.0 in East 2 mph 2 mph 95% 0.000 in 107.00 W/m2
08:34 67.1 °F 65.7 °F 30.0 in East 2 mph 2 mph 95% 0.000 in 114.00 W/m2
08:39 67.5 °F 66.0 °F 30.0 in East 2 mph 2 mph 95% 0.000 in 116.00 W/m2
08:44 67.6 °F 66.2 °F 30.0 in East 2 mph 2 mph 95% 0.000 in 120.00 W/m2
08:49 67.8 °F 66.4 °F 30.0 in East 3 mph 3 mph 95% 0.000 in 149.00 W/m2
08:54 68.2 °F 66.7 °F 30.0 in East 2 mph 2 mph 95% 0.000 in 139.00 W/m2
08:59 68.4 °F 66.9 °F 30.0 in East 1 mph 2 mph 95% 0.000 in 190.00 W/m2
09:04 68.7 °F 67.3 °F 30.0 in East 1 mph 1 mph 95% 0.000 in 214.00 W/m2
09:09 69.1 °F 67.6 °F 30.0 in East 2 mph 3 mph 95% 0.000 in 209.00 W/m2
09:14 69.4 °F 68.0 °F 30.0 in East 2 mph 2 mph 95% 0.000 in 236.00 W/m2
09:19 69.8 °F 68.4 °F 30.0 in East 2 mph 2 mph 95% 0.000 in 425.00 W/m2
09:24 70.5 °F 69.1 °F 30.0 in East 3 mph 3 mph 95% 0.000 in 373.00 W/m2
09:29 70.7 °F 69.1 °F 30.0 in East 2 mph 3 mph 95% 0.000 in 367.00 W/m2
09:34 71.2 °F 69.3 °F 30.0 in East 2 mph 2 mph 94% 0.000 in 396.00 W/m2
09:39 71.6 °F 69.3 °F 30.0 in East 2 mph 2 mph 93% 0.000 in 429.00 W/m2
Villages of Bridgestone, Spring, TX USA
Compliments of Weather Underground - 4 mb